Time;durP1;ratioP1;P1;durP2;ratioP2;P2;SDS_P1;SDS_P2;PMS_P1;PMS_P2;Temp;Humidity;BMP_temperature;BMP_pressure;BME280_temperature;BME280_humidity;BME280_pressure;Samples;Min_cycle;Max_cycle;Signal;HPM_P1;HPM_P2
2023/02/24 00:01:23;;;;;;;;;;;;;;;22.29;39.33;101636.91;7255961;19;153623;-56
2023/02/24 00:03:52;;;;;;;;;;;;;;;22.30;39.60;101638.59;7255517;19;154473;-56
2023/02/24 00:06:18;;;;;;;;;;;;;;;22.30;39.81;101635.78;7259191;19;156457;-55
2023/02/24 00:08:46;;;;;;;;;;;;;;;22.29;39.52;101638.88;7261059;19;154094;-55
2023/02/24 00:11:16;;;;;;;;;;;;;;;22.29;39.52;101642.53;7264131;19;154103;-55
2023/02/24 00:16:16;;;;;;;;;;;;;;;22.24;39.38;101638.97;7254924;19;154031;-56
2023/02/24 00:18:44;;;;;;;;;;;;;;;22.24;39.79;101630.50;7254569;19;156632;-56
2023/02/24 00:21:13;;;;;;;;;;;;;;;22.18;39.47;101629.75;7257123;19;152885;-56
2023/02/24 00:23:41;;;;;;;;;;;;;;;22.17;39.36;101630.88;7254853;19;154234;-56
2023/02/24 00:26:09;;;;;;;;;;;;;;;22.17;39.88;101620.47;7254357;19;154910;-56
2023/02/24 00:28:37;;;;;;;;;;;;;;;22.16;39.84;101620.78;7250975;19;152561;-56
2023/02/24 00:31:06;;;;;;;;;;;;;;;22.14;39.43;101621.06;7255229;19;152891;-56
2023/02/24 00:33:34;;;;;;;;;;;;;;;22.12;39.86;101608.47;7261793;19;154878;-56
2023/02/24 00:36:04;;;;;;;;;;;;;;;22.10;39.89;101610.72;7255700;19;154825;-56
2023/02/24 00:38:34;;;;;;;;;;;;;;;22.07;39.72;101608.53;7253477;19;155336;-56
2023/02/24 00:41:07;;;;;;;;;;;;;;;22.03;39.88;101613.09;7255083;19;154229;-56
2023/02/24 00:43:36;;;;;;;;;;;;;;;22.02;39.67;101608.59;7250069;19;154285;-56
2023/02/24 00:46:09;;;;;;;;;;;;;;;22.00;40.12;101596.78;7253609;19;153480;-56
2023/02/24 00:51:09;;;;;;;;;;;;;;;22.00;40.04;101591.16;7253963;19;154040;-56
2023/02/24 00:53:37;;;;;;;;;;;;;;;21.98;40.52;101591.47;7253041;19;153998;-56
2023/02/24 00:56:06;;;;;;;;;;;;;;;21.94;40.36;101572.69;7262189;19;152077;-56
2023/02/24 00:58:33;;;;;;;;;;;;;;;21.95;40.69;101577.16;7250867;19;154163;-56
2023/02/24 01:01:04;;;;;;;;;;;;;;;21.88;40.48;101585.13;7255094;19;153242;-56
2023/02/24 01:03:31;;;;;;;;;;;;;;;21.86;40.67;101574.16;7251947;19;153098;-56
2023/02/24 01:06:02;;;;;;;;;;;;;;;21.82;40.89;101569.44;7254454;19;154505;-56
2023/02/24 01:08:29;;;;;;;;;;;;;;;21.82;40.94;101567.47;7252341;19;153982;-57
2023/02/24 01:13:29;;;;;;;;;;;;;;;21.71;40.72;101557.50;7249663;19;154434;-56
2023/02/24 01:16:01;;;;;;;;;;;;;;;21.68;40.98;101542.06;7255114;19;152607;-56
2023/02/24 01:18:29;;;;;;;;;;;;;;;21.64;40.62;101542.97;7261330;19;153766;-56
2023/02/24 01:20:58;;;;;;;;;;;;;;;21.61;41.00;101535.97;7253224;19;152918;-56
2023/02/24 01:23:24;;;;;;;;;;;;;;;21.55;40.95;101534.34;7251326;19;152733;-56
2023/02/24 01:25:52;;;;;;;;;;;;;;;21.52;40.72;101525.69;7253906;19;154826;-56
2023/02/24 01:28:19;;;;;;;;;;;;;;;21.51;40.93;101522.03;7248871;19;154514;-56
2023/02/24 01:30:48;;;;;;;;;;;;;;;21.46;41.08;101533.34;7254693;19;152849;-56
2023/02/24 01:33:15;;;;;;;;;;;;;;;21.49;40.68;101524.31;7249620;19;154898;-56
2023/02/24 01:35:44;;;;;;;;;;;;;;;21.45;40.73;101526.03;7253430;19;153034;-56
2023/02/24 01:38:11;;;;;;;;;;;;;;;21.43;40.67;101522.72;7252748;19;153420;-56
2023/02/24 01:40:37;;;;;;;;;;;;;;;21.41;40.84;101521.31;7259901;19;152517;-56
2023/02/24 01:43:07;;;;;;;;;;;;;;;21.38;41.08;101516.31;7247206;19;153308;-56
2023/02/24 01:45:35;;;;;;;;;;;;;;;21.33;41.02;101513.56;7253565;19;152990;-56
2023/02/24 01:48:05;;;;;;;;;;;;;;;21.30;41.19;101506.59;7252329;19;154148;-56
2023/02/24 01:50:34;;;;;;;;;;;;;;;21.28;41.20;101506.03;7251448;19;152890;-56
2023/02/24 01:53:04;;;;;;;;;;;;;;;21.24;41.09;101503.00;7249323;19;154152;-56
2023/02/24 01:55:33;;;;;;;;;;;;;;;21.20;40.73;101504.72;7256081;19;151968;-56
2023/02/24 01:58:03;;;;;;;;;;;;;;;21.18;41.16;101500.53;7250516;19;155027;-56
2023/02/24 02:03:02;;;;;;;;;;;;;;;21.12;40.62;101498.91;7249329;19;154298;-56
2023/02/24 02:05:29;;;;;;;;;;;;;;;21.08;40.74;101503.41;7251998;19;154608;-56
2023/02/24 02:07:56;;;;;;;;;;;;;;;21.06;40.99;101497.28;7249968;19;154328;-56
2023/02/24 02:10:24;;;;;;;;;;;;;;;21.03;41.07;101500.69;7253180;19;154771;-56
2023/02/24 02:12:51;;;;;;;;;;;;;;;20.99;40.85;101499.59;7245801;19;156484;-56
2023/02/24 02:15:19;;;;;;;;;;;;;;;20.95;40.64;101490.94;7250292;19;153626;-56
2023/02/24 02:17:50;;;;;;;;;;;;;;;20.92;40.86;101480.28;7251073;19;154126;-56
2023/02/24 02:49:56;;;;;;;;;;;;;;;20.63;41.21;101441.00;7270507;19;153327;-55
2023/02/24 02:52:30;;;;;;;;;;;;;;;20.58;41.11;101443.88;7284101;19;152527;-55
2023/02/24 02:55:02;;;;;;;;;;;;;;;20.56;41.20;101446.16;7287025;19;153123;-55
2023/02/24 02:57:30;;;;;;;;;;;;;;;20.54;41.27;101441.94;7287688;19;152365;-55
2023/02/24 03:00:00;;;;;;;;;;;;;;;20.51;41.35;101437.78;7276998;19;154577;-54
2023/02/24 03:02:29;;;;;;;;;;;;;;;20.51;41.11;101437.78;7295121;19;153109;-55
2023/02/24 03:04:58;;;;;;;;;;;;;;;20.48;41.47;101424.34;7289805;19;154800;-55
2023/02/24 03:07:30;;;;;;;;;;;;;;;20.46;41.26;101422.94;7291559;19;154238;-57
2023/02/24 03:10:00;;;;;;;;;;;;;;;20.42;41.57;101417.09;7288197;19;154539;-55
2023/02/24 03:12:29;;;;;;;;;;;;;;;20.40;41.30;101408.97;7287491;19;152981;-55
2023/02/24 03:14:58;;;;;;;;;;;;;;;20.38;41.39;101407.59;7286238;19;154681;-55
2023/02/24 03:17:28;;;;;;;;;;;;;;;20.36;41.77;101407.03;7289649;19;152089;-55
2023/02/24 03:19:59;;;;;;;;;;;;;;;20.33;41.50;101396.44;7283662;19;153578;-54
2023/02/24 03:22:33;;;;;;;;;;;;;;;20.29;41.91;101390.53;7285817;19;153333;-55
2023/02/24 03:25:02;;;;;;;;;;;;;;;20.26;41.60;101388.31;7291433;19;154190;-55
2023/02/24 03:27:34;;;;;;;;;;;;;;;20.25;41.82;101391.44;7284722;19;154131;-55
2023/02/24 03:30:06;;;;;;;;;;;;;;;20.22;41.94;101383.59;7283000;19;153399;-55
2023/02/24 03:32:42;;;;;;;;;;;;;;;20.24;41.80;101384.97;7284152;19;154189;-55
2023/02/24 03:35:14;;;;;;;;;;;;;;;20.18;41.78;101368.47;7285453;19;153014;-56
2023/02/24 03:37:41;;;;;;;;;;;;;;;20.16;41.95;101371.59;7285611;19;153863;-55
2023/02/24 03:40:13;;;;;;;;;;;;;;;20.15;41.94;101366.28;7281136;19;152817;-56
2023/02/24 03:42:42;;;;;;;;;;;;;;;20.10;42.09;101366.31;7285327;19;152358;-55
2023/02/24 03:45:10;;;;;;;;;;;;;;;20.06;41.87;101360.47;7282147;19;153834;-55
2023/02/24 03:47:39;;;;;;;;;;;;;;;20.05;41.89;101349.53;7291102;19;154265;-55
2023/02/24 03:50:09;;;;;;;;;;;;;;;20.03;41.86;101354.63;7268787;19;153273;-55
2023/02/24 03:52:40;;;;;;;;;;;;;;;20.00;42.15;101347.63;7256110;19;154486;-55
2023/02/24 03:55:08;;;;;;;;;;;;;;;19.98;41.85;101350.72;7257360;19;153773;-55
2023/02/24 04:02:56;;;;;;;;;;;;;;;19.90;41.98;101348.53;7258136;19;154256;-56
2023/02/24 04:05:26;;;;;;;;;;;;;;;19.87;41.98;101337.09;7255947;19;154366;-55
2023/02/24 04:07:56;;;;;;;;;;;;;;;19.86;42.05;101336.25;7254039;19;152658;-57
2023/02/24 04:10:30;;;;;;;;;;;;;;;19.81;41.86;101327.88;7265161;19;152873;-57
2023/02/24 04:13:00;;;;;;;;;;;;;;;19.81;41.71;101324.22;7253146;19;154714;-57
2023/02/24 04:15:31;;;;;;;;;;;;;;;19.79;42.00;101316.13;7251570;19;154351;-56
2023/02/24 04:18:00;;;;;;;;;;;;;;;19.76;41.88;101321.50;7257191;19;153753;-56
2023/02/24 04:20:29;;;;;;;;;;;;;;;19.75;42.12;101322.63;7251884;19;152651;-58
2023/02/24 04:22:59;;;;;;;;;;;;;;;19.73;42.08;101313.66;7257069;19;153684;-56
2023/02/24 04:25:27;;;;;;;;;;;;;;;19.70;41.75;101312.28;7255635;19;155368;-56
2023/02/24 04:27:57;;;;;;;;;;;;;;;19.74;41.92;101306.94;7255253;19;153525;-56
2023/02/24 04:30:26;;;;;;;;;;;;;;;19.69;41.88;101302.19;7252328;19;153727;-56
2023/02/24 04:32:52;;;;;;;;;;;;;;;19.67;42.18;101298.03;7262394;19;155953;-56
2023/02/24 04:35:21;;;;;;;;;;;;;;;19.63;42.19;101292.16;7256185;19;152863;-56
2023/02/24 04:37:49;;;;;;;;;;;;;;;19.61;42.13;101291.63;7254560;19;153005;-56
2023/02/24 04:40:17;;;;;;;;;;;;;;;19.59;42.22;101290.22;7250944;19;154930;-56
2023/02/24 04:42:45;;;;;;;;;;;;;;;19.57;42.01;101292.50;7254865;19;153952;-56
2023/02/24 04:45:15;;;;;;;;;;;;;;;19.53;42.05;101295.06;7251273;19;154765;-56
2023/02/24 04:47:45;;;;;;;;;;;;;;;19.53;41.71;101286.66;7253377;19;154023;-56
2023/02/24 04:50:21;;;;;;;;;;;;;;;19.50;41.98;101284.44;7252647;19;153688;-56
2023/02/24 04:52:49;;;;;;;;;;;;;;;19.48;42.19;101281.94;7254614;19;155423;-56
2023/02/24 04:55:17;;;;;;;;;;;;;;;19.47;41.87;101276.63;7260451;19;152419;-56
2023/02/24 04:57:44;;;;;;;;;;;;;;;19.46;41.93;101283.34;7253094;19;154508;-56
2023/02/24 05:00:19;;;;;;;;;;;;;;;19.45;41.89;101278.88;7248065;19;154867;-56
2023/02/24 05:02:47;;;;;;;;;;;;;;;19.43;42.08;101276.38;7250294;19;154172;-56
2023/02/24 05:05:14;;;;;;;;;;;;;;;19.41;41.86;101272.16;7255722;19;152847;-56
2023/02/24 05:07:46;;;;;;;;;;;;;;;19.39;41.92;101272.47;7250473;19;154530;-56
2023/02/24 05:10:14;;;;;;;;;;;;;;;19.36;41.76;101267.41;7254522;19;153439;-56
2023/02/24 05:12:41;;;;;;;;;;;;;;;19.36;42.14;101258.16;7253915;19;153465;-55
2023/02/24 05:15:08;;;;;;;;;;;;;;;19.32;41.80;101257.94;7257186;19;154637;-55
2023/02/24 05:17:35;;;;;;;;;;;;;;;19.32;41.80;101266.34;7253926;19;155220;-55
2023/02/24 05:22:35;;;;;;;;;;;;;;;19.26;41.44;101259.09;7253077;19;152302;-55
2023/02/24 05:25:03;;;;;;;;;;;;;;;19.23;41.88;101254.09;7254015;19;154869;-55
2023/02/24 05:27:30;;;;;;;;;;;;;;;19.23;41.61;101256.03;7252412;19;153109;-55
2023/02/24 05:29:57;;;;;;;;;;;;;;;19.25;41.92;101245.41;7250609;19;154756;-56
2023/02/24 05:32:24;;;;;;;;;;;;;;;19.22;42.03;101244.00;7252637;19;154632;-56
2023/02/24 05:34:51;;;;;;;;;;;;;;;19.18;42.25;101228.06;7251922;19;154980;-55
2023/02/24 05:37:18;;;;;;;;;;;;;;;19.16;42.37;101225.59;7261354;19;153648;-56
2023/02/24 05:39:44;;;;;;;;;;;;;;;19.14;42.27;101216.63;7250675;19;153052;-56
2023/02/24 05:42:11;;;;;;;;;;;;;;;19.14;42.15;101208.22;7252314;19;152119;-56
2023/02/24 05:44:38;;;;;;;;;;;;;;;19.13;42.51;101216.91;7248570;19;154896;-55
2023/02/24 05:47:07;;;;;;;;;;;;;;;19.09;42.55;101211.91;7253085;19;153133;-56
2023/02/24 05:49:37;;;;;;;;;;;;;;;19.09;42.25;101205.47;7251198;19;154003;-55
2023/02/24 05:52:07;;;;;;;;;;;;;;;19.07;41.99;101210.53;7250994;19;153922;-56
2023/02/24 05:54:37;;;;;;;;;;;;;;;19.05;42.21;101208.00;7251268;19;154265;-56
2023/02/24 05:57:08;;;;;;;;;;;;;;;19.04;42.10;101195.13;7252877;19;153182;-56
2023/02/24 05:59:34;;;;;;;;;;;;;;;19.00;42.39;101194.03;7254356;19;153828;-55
2023/02/24 06:02:05;;;;;;;;;;;;;;;19.01;42.50;101178.09;7252326;19;152943;-56
2023/02/24 06:07:04;;;;;;;;;;;;;;;18.96;42.05;101183.72;7251008;19;153971;-55
2023/02/24 06:09:31;;;;;;;;;;;;;;;18.95;42.13;101177.28;7251820;19;153836;-55
2023/02/24 06:11:58;;;;;;;;;;;;;;;18.91;41.84;101170.59;7251593;19;154403;-56
2023/02/24 06:14:26;;;;;;;;;;;;;;;18.92;41.97;101172.28;7245619;19;155637;-55
2023/02/24 06:16:53;;;;;;;;;;;;;;;18.89;42.19;101170.06;7255399;19;154023;-55
2023/02/24 06:19:20;;;;;;;;;;;;;;;18.89;42.24;101170.06;7251853;19;153443;-55
2023/02/24 06:21:47;;;;;;;;;;;;;;;18.86;42.36;101162.25;7259879;19;154041;-55
2023/02/24 06:24:14;;;;;;;;;;;;;;;18.85;42.19;101157.75;7252816;19;159379;-55
2023/02/24 06:26:42;;;;;;;;;;;;;;;18.83;41.91;101153.59;7250107;19;154455;-55
2023/02/24 06:29:13;;;;;;;;;;;;;;;18.80;41.88;101155.03;7249286;19;153470;-56
2023/02/24 06:31:41;;;;;;;;;;;;;;;18.77;42.15;101141.59;7250791;19;153528;-55
2023/02/24 06:34:09;;;;;;;;;;;;;;;18.79;42.13;101141.31;7251228;19;155598;-55
2023/02/24 06:36:36;;;;;;;;;;;;;;;18.79;41.97;101132.91;7251016;19;152927;-55
2023/02/24 06:39:06;;;;;;;;;;;;;;;18.76;42.04;101133.50;7253111;19;153514;-55
2023/02/24 06:41:34;;;;;;;;;;;;;;;18.72;41.95;101129.59;7251425;19;154100;-55
2023/02/24 06:44:01;;;;;;;;;;;;;;;18.72;41.96;101132.41;7254601;19;152898;-56
2023/02/24 06:46:27;;;;;;;;;;;;;;;18.70;42.25;101137.47;7249277;19;153706;-56
2023/02/24 06:48:56;;;;;;;;;;;;;;;18.68;42.06;101132.16;7251623;19;153674;-55
2023/02/24 06:51:23;;;;;;;;;;;;;;;18.68;42.44;101137.75;7250614;19;153791;-56
2023/02/24 06:53:51;;;;;;;;;;;;;;;18.69;42.46;101130.19;7250856;19;152772;-56
2023/02/24 06:56:18;;;;;;;;;;;;;;;18.70;42.09;101132.72;7251879;19;154336;-56
2023/02/24 06:58:46;;;;;;;;;;;;;;;18.75;42.25;101135.47;7248060;19;153935;-56
2023/02/24 07:01:14;;;;;;;;;;;;;;;18.82;42.75;101135.97;7248137;19;152919;-56
2023/02/24 07:04:01;;;;;;;;;;;;;;;18.88;42.38;101125.56;7257453;19;151854;-56
2023/02/24 07:06:29;;;;;;;;;;;;;;;18.91;42.36;101128.59;7250266;19;152597;-56
2023/02/24 07:08:57;;;;;;;;;;;;;;;18.97;42.20;101124.63;7250551;19;153394;-56
2023/02/24 07:11:27;;;;;;;;;;;;;;;19.04;42.14;101133.53;7250049;19;153967;-56
2023/02/24 07:13:53;;;;;;;;;;;;;;;19.11;42.16;101133.19;7244547;19;153629;-56
2023/02/24 07:18:55;;;;;;;;;;;;;;;19.25;42.83;101128.59;7249829;19;154966;-57
2023/02/24 07:21:23;;;;;;;;;;;;;;;19.32;41.95;101129.06;7248635;19;154571;-57
2023/02/24 07:23:55;;;;;;;;;;;;;;;19.39;42.08;101123.97;7251411;19;152551;-57
2023/02/24 07:26:25;;;;;;;;;;;;;;;19.44;41.57;101120.28;7261738;19;153027;-56
2023/02/24 07:28:55;;;;;;;;;;;;;;;19.50;41.75;101119.09;7253008;19;153022;-56
2023/02/24 07:31:23;;;;;;;;;;;;;;;19.57;41.10;101124.34;7254810;19;155812;-57
2023/02/24 07:33:55;;;;;;;;;;;;;;;19.30;38.28;101117.31;7256325;19;153584;-56
2023/02/24 07:36:23;;;;;;;;;;;;;;;19.41;38.34;101110.47;7257444;19;152145;-56
2023/02/24 07:38:51;;;;;;;;;;;;;;;19.50;37.82;101113.47;7256784;19;152798;-57
2023/02/24 07:41:21;;;;;;;;;;;;;;;19.53;37.64;101113.72;7255385;19;152551;-57
2023/02/24 07:43:49;;;;;;;;;;;;;;;19.59;37.59;101116.47;7255706;19;152872;-56
2023/02/24 07:46:20;;;;;;;;;;;;;;;19.63;37.67;101115.56;7258249;19;153199;-57
2023/02/24 07:48:47;;;;;;;;;;;;;;;19.66;37.52;101116.97;7266475;19;154137;-57
2023/02/24 07:51:15;;;;;;;;;;;;;;;19.70;37.38;101120.84;7257702;19;155945;-56
2023/02/24 07:53:47;;;;;;;;;;;;;;;19.74;37.58;101124.69;7257292;19;153490;-56
2023/02/24 07:58:52;;;;;;;;;;;;;;;19.81;37.14;101114.78;7254379;19;152116;-56
2023/02/24 08:03:50;;;;;;;;;;;;;;;19.86;37.04;101099.88;7257269;19;153002;-56
2023/02/24 08:06:26;;;;;;;;;;;;;;;19.89;36.63;101107.69;7260207;19;153357;-56
2023/02/24 08:11:25;;;;;;;;;;;;;;;19.95;36.94;101090.47;7265526;19;153123;-56
2023/02/24 08:13:52;;;;;;;;;;;;;;;19.99;36.57;101088.75;7250454;19;153811;-56
2023/02/24 08:16:19;;;;;;;;;;;;;;;20.04;36.95;101089.81;7256903;19;154274;-56
2023/02/24 08:18:47;;;;;;;;;;;;;;;20.07;36.67;101089.22;7254798;19;152514;-56
2023/02/24 08:21:15;;;;;;;;;;;;;;;20.10;36.61;101089.44;7255191;19;153148;-56
2023/02/24 08:23:43;;;;;;;;;;;;;;;20.15;36.28;101091.34;7255481;19;152984;-57
2023/02/24 08:26:11;;;;;;;;;;;;;;;20.17;36.60;101091.88;7256384;19;152203;-57
2023/02/24 08:28:39;;;;;;;;;;;;;;;20.21;36.92;101090.97;7251553;19;154188;-57
2023/02/24 08:31:05;;;;;;;;;;;;;;;20.26;37.09;101095.69;7256128;19;153547;-57
2023/02/24 08:33:36;;;;;;;;;;;;;;;20.32;37.14;101084.09;7262152;19;152524;-59
2023/02/24 08:36:03;;;;;;;;;;;;;;;20.37;37.13;101100.88;7256717;19;153471;-57
2023/02/24 08:38:38;;;;;;;;;;;;;;;20.40;36.50;101094.63;7257079;19;153660;-57
2023/02/24 08:41:10;;;;;;;;;;;;;;;20.44;36.49;101099.66;7252714;19;154765;-57
2023/02/24 08:43:38;;;;;;;;;;;;;;;20.45;36.20;101085.31;7251726;19;154623;-56
2023/02/24 08:46:11;;;;;;;;;;;;;;;20.49;36.39;101085.56;7254805;19;153840;-57
2023/02/24 08:48:41;;;;;;;;;;;;;;;20.50;35.96;101088.03;7251052;19;154075;-57
2023/02/24 08:51:10;;;;;;;;;;;;;;;20.52;35.78;101076.50;7255679;19;152958;-56
2023/02/24 08:53:39;;;;;;;;;;;;;;;20.54;35.90;101080.66;7253563;19;153732;-57
2023/02/24 08:56:10;;;;;;;;;;;;;;;20.57;35.81;101066.03;7264202;19;154164;-57
2023/02/24 08:58:45;;;;;;;;;;;;;;;20.60;35.76;101079.44;7205312;19;155282;-57
2023/02/24 09:03:47;;;;;;;;;;;;;;;20.66;35.60;101071.78;7252287;19;153871;-56
2023/02/24 09:06:18;;;;;;;;;;;;;;;20.68;35.79;101077.91;7251870;19;155255;-56
2023/02/24 09:09:16;;;;;;;;;;;;;;;20.71;35.80;101066.09;7251516;19;152840;-56
2023/02/24 09:11:42;;;;;;;;;;;;;;;20.74;35.51;101065.47;7252749;19;153010;-57
2023/02/24 09:14:15;;;;;;;;;;;;;;;20.75;35.95;101053.94;7249683;19;153520;-56
2023/02/24 09:22:13;;;;;;;;;;;;;;;20.83;35.66;101041.16;7251851;19;153399;-57
2023/02/24 09:24:49;;;;;;;;;;;;;;;20.85;35.44;101033.25;7256193;19;153092;-57
2023/02/24 09:27:17;;;;;;;;;;;;;;;20.88;35.35;101031.81;7254433;19;153896;-60
2023/02/24 09:29:48;;;;;;;;;;;;;;;20.89;35.13;101028.69;7250483;19;152696;-57
2023/02/24 09:32:15;;;;;;;;;;;;;;;20.88;35.16;101029.00;7254067;19;152602;-56
2023/02/24 09:34:43;;;;;;;;;;;;;;;20.91;35.06;101022.75;7252575;19;152344;-57
2023/02/24 09:44:51;;;;;;;;;;;;;;;20.90;35.05;101007.03;7248752;19;154872;-56
2023/02/24 09:49:55;;;;;;;;;;;;;;;20.89;35.06;100999.78;7249810;19;154920;-56
2023/02/24 09:52:38;;;;;;;;;;;;;;;20.89;35.75;100996.97;7252365;19;154023;-56
2023/02/24 09:58:21;;;;;;;;;;;;;;;20.93;35.29;100993.22;7253985;19;155822;-57
2023/02/24 10:00:32;;;;;;;;;;;;;;;20.97;35.38;101001.84;7246025;19;153090;-56
2023/02/24 10:03:02;;;;;;;;;;;;;;;21.02;35.62;100996.16;7257373;19;154462;-57
2023/02/24 10:05:37;;;;;;;;;;;;;;;21.02;35.47;100996.97;7253189;19;152487;-58
2023/02/24 10:08:12;;;;;;;;;;;;;;;21.05;35.73;100995.50;7252919;19;154207;-57
2023/02/24 10:10:59;;;;;;;;;;;;;;;21.06;35.41;100994.38;7253067;19;153299;-57
2023/02/24 10:13:31;;;;;;;;;;;;;;;21.07;35.43;100998.84;7250421;19;153832;-57
2023/02/24 10:16:04;;;;;;;;;;;;;;;21.09;35.72;101000.19;7256178;19;154973;-56
2023/02/24 10:18:34;;;;;;;;;;;;;;;21.12;35.46;101007.19;7250502;19;154853;-57
2023/02/24 10:21:14;;;;;;;;;;;;;;;21.12;35.42;100995.94;7253349;19;152058;-56
2023/02/24 10:23:44;;;;;;;;;;;;;;;21.11;35.40;100997.09;7254080;19;154282;-56
2023/02/24 10:26:20;;;;;;;;;;;;;;;21.12;35.37;100991.13;7261107;19;153033;-56
2023/02/24 10:28:52;;;;;;;;;;;;;;;21.11;35.35;100992.31;7250468;19;154305;-57
2023/02/24 10:31:24;;;;;;;;;;;;;;;21.14;35.67;100988.06;7252195;19;153602;-57
2023/02/24 10:33:56;;;;;;;;;;;;;;;21.11;35.39;100989.50;7253627;19;154416;-56
2023/02/24 10:36:33;;;;;;;;;;;;;;;21.10;35.40;100993.44;7255318;19;153533;-56
2023/02/24 10:39:07;;;;;;;;;;;;;;;21.08;35.16;100990.09;7252509;19;153635;-56
2023/02/24 10:41:37;;;;;;;;;;;;;;;21.09;35.32;100999.38;7251071;19;152274;-57
2023/02/24 10:44:10;;;;;;;;;;;;;;;21.06;35.15;100992.41;7251204;19;153295;-57
2023/02/24 10:46:37;;;;;;;;;;;;;;;21.05;35.29;100993.53;7252276;19;154572;-57
2023/02/24 10:49:10;;;;;;;;;;;;;;;21.04;35.60;100991.03;7259670;19;154311;-57
2023/02/24 10:51:39;;;;;;;;;;;;;;;21.03;35.59;100995.00;7252072;19;152556;-57
2023/02/24 10:56:43;;;;;;;;;;;;;;;21.02;35.67;101002.59;7254236;19;153589;-57
2023/02/24 11:01:53;;;;;;;;;;;;;;;21.01;35.35;100991.66;7256981;19;156428;-57
2023/02/24 11:04:31;;;;;;;;;;;;;;;21.01;35.32;100992.50;7260022;19;154691;-57
2023/02/24 11:07:08;;;;;;;;;;;;;;;20.97;35.39;100985.84;7257296;19;152197;-57
2023/02/24 11:09:44;;;;;;;;;;;;;;;20.98;35.79;100992.28;7257641;19;153343;-57
2023/02/24 11:17:19;;;;;;;;;;;;;;;20.92;35.80;100980.31;7260300;19;154855;-57
2023/02/24 11:19:49;;;;;;;;;;;;;;;20.89;35.89;100980.94;7258922;19;154352;-58
2023/02/24 11:22:19;;;;;;;;;;;;;;;20.86;35.76;100985.19;7258165;19;153530;-57
2023/02/24 11:24:47;;;;;;;;;;;;;;;20.86;36.28;100979.56;7258944;19;154319;-57
2023/02/24 11:27:17;;;;;;;;;;;;;;;20.86;35.80;100975.94;7257823;19;155410;-57
2023/02/24 11:29:57;;;;;;;;;;;;;;;20.83;35.98;100970.94;7256088;19;153228;-55
2023/02/24 11:32:28;;;;;;;;;;;;;;;20.79;35.95;100967.94;7264014;19;153542;-55
2023/02/24 11:34:59;;;;;;;;;;;;;;;20.77;36.07;100973.00;7257736;19;154674;-58
2023/02/24 11:37:33;;;;;;;;;;;;;;;20.75;36.24;100971.66;7260810;19;153417;-57
2023/02/24 11:40:05;;;;;;;;;;;;;;;20.70;36.35;100957.72;7259082;19;153437;-55
2023/02/24 11:42:36;;;;;;;;;;;;;;;20.65;36.60;100964.25;7258514;19;153715;-56
2023/02/24 11:45:07;;;;;;;;;;;;;;;20.64;36.61;100965.41;7257849;19;153478;-57
2023/02/24 11:47:40;;;;;;;;;;;;;;;20.64;36.82;100959.78;7257374;19;153563;-57
2023/02/24 11:50:07;;;;;;;;;;;;;;;20.58;36.92;100954.59;7256352;19;154005;-55
2023/02/24 11:52:37;;;;;;;;;;;;;;;20.55;36.96;100956.03;7257273;19;153102;-57
2023/02/24 11:55:11;;;;;;;;;;;;;;;20.57;36.65;100950.09;7263707;19;154780;-58
2023/02/24 11:57:40;;;;;;;;;;;;;;;20.56;37.08;100952.06;7256669;19;153572;-57
2023/02/24 12:00:12;;;;;;;;;;;;;;;20.50;36.93;100949.66;7253311;19;153338;-58
2023/02/24 12:02:42;;;;;;;;;;;;;;;20.50;37.19;100949.66;7251259;19;154011;-57
2023/02/24 12:05:12;;;;;;;;;;;;;;;20.47;37.48;100941.88;7257363;19;154273;-58
2023/02/24 12:07:41;;;;;;;;;;;;;;;20.46;37.14;100941.03;7254252;19;154550;-57
2023/02/24 12:10:08;;;;;;;;;;;;;;;20.46;37.39;100943.00;7252773;19;154104;-58
2023/02/24 12:12:45;;;;;;;;;;;;;;;20.42;37.60;100932.41;7254615;19;154146;-57
2023/02/24 12:15:18;;;;;;;;;;;;;;;20.37;37.68;100932.50;7254452;19;154726;-58
2023/02/24 12:17:48;;;;;;;;;;;;;;;20.35;37.61;100937.56;7269855;19;153279;-58
2023/02/24 12:20:18;;;;;;;;;;;;;;;20.35;37.86;100936.75;7262892;19;153999;-61
2023/02/24 12:22:51;;;;;;;;;;;;;;;20.31;37.94;100930.91;7259979;19;154245;-57
2023/02/24 12:25:24;;;;;;;;;;;;;;;20.30;38.48;100932.06;7258367;19;153751;-57
2023/02/24 12:27:53;;;;;;;;;;;;;;;20.27;38.45;100934.59;7256988;19;154187;-57
2023/02/24 12:30:32;;;;;;;;;;;;;;;20.23;38.65;100939.16;7253980;19;154236;-57
2023/02/24 12:33:07;;;;;;;;;;;;;;;20.15;38.86;100934.25;7258594;19;153162;-57
2023/02/24 12:35:38;;;;;;;;;;;;;;;20.13;38.62;100930.91;7258154;19;154229;-58
2023/02/24 12:38:08;;;;;;;;;;;;;;;20.10;39.12;100928.72;7256614;19;153136;-57
2023/02/24 12:40:38;;;;;;;;;;;;;;;20.05;38.88;100918.44;7263507;19;154238;-57
2023/02/24 12:43:08;;;;;;;;;;;;;;;20.06;39.29;100920.09;7249988;19;154155;-57
2023/02/24 12:45:38;;;;;;;;;;;;;;;20.08;38.92;100915.00;7254867;19;155979;-57
2023/02/24 12:48:05;;;;;;;;;;;;;;;20.06;39.06;100919.25;7253314;19;152680;-57
2023/02/24 12:50:36;;;;;;;;;;;;;;;20.05;39.09;100921.22;7253670;19;152759;-57
2023/02/24 12:53:07;;;;;;;;;;;;;;;20.05;39.17;100912.81;7256561;19;153967;-57
2023/02/24 12:55:43;;;;;;;;;;;;;;;20.01;39.24;100908.97;7252829;19;153293;-57
2023/02/24 12:58:11;;;;;;;;;;;;;;;20.03;39.57;100917.91;7255652;19;154444;-56
2023/02/24 13:00:41;;;;;;;;;;;;;;;19.99;39.43;100909.25;7255054;19;153465;-56
2023/02/24 13:03:11;;;;;;;;;;;;;;;19.97;39.59;100908.75;7258387;19;154240;-56
2023/02/24 13:05:44;;;;;;;;;;;;;;;19.96;39.76;100909.88;7252027;19;152374;-56
2023/02/24 13:08:15;;;;;;;;;;;;;;;19.96;39.31;100909.88;7252909;19;154211;-57
2023/02/24 13:10:45;;;;;;;;;;;;;;;19.90;39.64;100899.88;7255455;19;154054;-56
2023/02/24 13:13:15;;;;;;;;;;;;;;;19.86;39.46;100901.63;7252847;19;153946;-56
2023/02/24 13:15:45;;;;;;;;;;;;;;;19.87;39.88;100896.84;7253962;19;152940;-56
2023/02/24 13:18:22;;;;;;;;;;;;;;;19.85;39.72;100897.16;7253248;19;153249;-56
2023/02/24 13:21:01;;;;;;;;;;;;;;;19.83;39.80;100907.00;7254933;19;154694;-56
2023/02/24 13:23:27;;;;;;;;;;;;;;;19.79;39.84;100898.38;7249079;19;154034;-56
2023/02/24 13:25:55;;;;;;;;;;;;;;;19.78;39.75;100885.50;7262790;19;153681;-56
2023/02/24 13:28:24;;;;;;;;;;;;;;;19.76;39.77;100900.97;7249525;19;152492;-56
2023/02/24 13:30:54;;;;;;;;;;;;;;;19.73;39.55;100898.75;7256173;19;153219;-56
2023/02/24 13:33:25;;;;;;;;;;;;;;;19.71;39.91;100887.88;7249854;19;154063;-56
2023/02/24 13:36:05;;;;;;;;;;;;;;;19.69;39.88;100892.09;7252182;19;154077;-55
2023/02/24 13:38:37;;;;;;;;;;;;;;;19.66;39.96;100885.16;7252127;19;153395;-57
2023/02/24 13:41:05;;;;;;;;;;;;;;;19.65;40.10;100880.66;7252022;19;153693;-57
2023/02/24 13:43:32;;;;;;;;;;;;;;;19.64;40.17;100872.56;7248106;19;153681;-57
2023/02/24 13:46:03;;;;;;;;;;;;;;;19.64;39.99;100869.75;7261766;19;153192;-57
2023/02/24 13:48:31;;;;;;;;;;;;;;;19.62;39.99;100864.47;7250592;19;153778;-57
2023/02/24 13:51:01;;;;;;;;;;;;;;;19.62;40.17;100869.25;7253061;19;153906;-57
2023/02/24 13:53:33;;;;;;;;;;;;;;;19.65;40.27;100869.47;7252797;19;153788;-57
2023/02/24 13:56:03;;;;;;;;;;;;;;;19.64;39.86;100866.94;7252086;19;153870;-57
2023/02/24 13:58:33;;;;;;;;;;;;;;;19.61;40.20;100854.38;7249521;19;154657;-57
2023/02/24 14:01:03;;;;;;;;;;;;;;;19.60;39.98;100852.72;7253404;19;153046;-55
2023/02/24 14:03:31;;;;;;;;;;;;;;;19.59;39.94;100853.00;7248711;19;153912;-57
2023/02/24 14:05:59;;;;;;;;;;;;;;;19.58;39.97;100851.38;7249301;19;154105;-57
2023/02/24 14:08:34;;;;;;;;;;;;;;;19.58;40.27;100852.19;7258949;19;153288;-57
2023/02/24 14:11:02;;;;;;;;;;;;;;;19.60;40.21;100855.53;7254473;19;154602;-57
2023/02/24 14:13:32;;;;;;;;;;;;;;;19.59;40.20;100853.00;7250498;19;153796;-57